Time;durP1;ratioP1;P1;durP2;ratioP2;P2;SDS_P1;SDS_P2;PMS_P1;PMS_P2;Temp;Humidity;BMP_temperature;BMP_pressure;BME280_temperature;BME280_humidity;BME280_pressure;Samples;Min_cycle;Max_cycle;Signal;HPM_P1;HPM_P2
2024/01/02 00:00:50;;;;;;;28.80;23.10;;;;;;;4.28;100.00;98807.04;87218;271;137571;-72
2024/01/02 00:02:52;;;;;;;30.50;24.00;;;;;;;4.27;100.00;98806.63;87439;278;22549;-72
2024/01/02 00:04:54;;;;;;;26.30;21.50;;;;;;;4.26;100.00;98803.01;87159;267;136865;-72
2024/01/02 00:06:55;;;;;;;28.00;22.00;;;;;;;4.24;100.00;98802.48;87229;266;25178;-72
2024/01/02 00:08:57;;;;;;;25.20;20.70;;;;;;;4.24;100.00;98802.73;87245;277;137148;-71
2024/01/02 00:10:59;;;;;;;27.70;21.30;;;;;;;4.23;100.00;98800.73;87179;273;25136;-69
2024/01/02 00:13:01;;;;;;;24.60;20.70;;;;;;;4.22;100.00;98801.40;87262;270;137063;-70
2024/01/02 00:15:03;;;;;;;27.50;22.30;;;;;;;4.23;100.00;98795.63;87237;271;24010;-70
2024/01/02 00:17:05;;;;;;;27.20;21.10;;;;;;;4.24;100.00;98797.70;87382;266;135825;-70
2024/01/02 00:19:07;;;;;;;28.20;21.20;;;;;;;4.24;100.00;98803.15;87217;280;25111;-72
2024/01/02 00:21:09;;;;;;;26.80;21.80;;;;;;;4.25;100.00;98798.98;87030;270;136758;-72
2024/01/02 00:23:10;;;;;;;26.00;21.00;;;;;;;4.25;100.00;98799.34;87358;274;22557;-69
2024/01/02 00:25:12;;;;;;;25.10;21.40;;;;;;;4.24;100.00;98799.36;87244;270;137794;-73
2024/01/02 00:27:14;;;;;;;24.30;19.20;;;;;;;4.25;100.00;98795.89;87343;270;25348;-72
2024/01/02 00:29:16;;;;;;;26.80;20.50;;;;;;;4.28;100.00;98794.20;87163;275;136916;-72
2024/01/02 00:31:19;;;;;;;25.80;20.10;;;;;;;4.29;100.00;98791.43;87288;269;22577;-70
2024/01/02 00:33:22;;;;;;;21.60;18.00;;;;;;;4.29;100.00;98785.30;87216;269;137298;-71
2024/01/02 00:35:26;;;;;;;23.00;19.30;;;;;;;4.32;100.00;98788.59;87182;271;22748;-71
2024/01/02 00:37:28;;;;;;;21.80;18.40;;;;;;;4.33;100.00;98784.41;87061;270;137103;-71
2024/01/02 00:39:30;;;;;;;20.80;17.40;;;;;;;4.34;100.00;98784.86;87396;270;25075;-73
2024/01/02 00:41:33;;;;;;;21.70;17.00;;;;;;;4.35;100.00;98780.21;87295;271;137879;-73
2024/01/02 00:43:34;;;;;;;18.10;15.50;;;;;;;4.38;100.00;98780.52;87293;273;24021;-71
2024/01/02 00:45:36;;;;;;;18.60;14.50;;;;;;;4.37;100.00;98779.58;87224;266;137062;-72
2024/01/02 00:47:38;;;;;;;19.80;13.80;;;;;;;4.37;100.00;98778.50;87334;270;22571;-70
2024/01/02 00:49:40;;;;;;;15.60;12.60;;;;;;;4.38;100.00;98773.11;87169;278;137245;-69
2024/01/02 00:51:42;;;;;;;14.10;11.90;;;;;;;4.40;100.00;98778.80;87319;274;24179;-71
2024/01/02 00:53:47;;;;;;;15.50;12.10;;;;;;;4.42;100.00;98777.98;87207;270;137963;-72
2024/01/02 00:55:48;;;;;;;13.60;11.40;;;;;;;4.42;100.00;98781.05;87068;271;22563;-67
2024/01/02 00:57:50;;;;;;;13.00;11.50;;;;;;;4.42;100.00;98777.04;87258;267;137233;-71
2024/01/02 00:59:52;;;;;;;13.50;11.90;;;;;;;4.43;100.00;98779.73;87284;274;25079;-71
2024/01/02 01:01:54;;;;;;;12.80;9.90;;;;;;;4.44;100.00;98777.59;87207;269;138200;-71
2024/01/02 01:03:56;;;;;;;11.20;8.90;;;;;;;4.48;100.00;98780.56;87281;270;24252;-72
2024/01/02 01:05:57;;;;;;;12.00;9.60;;;;;;;4.52;100.00;98777.96;87098;268;136634;-70
2024/01/02 01:07:59;;;;;;;8.10;6.90;;;;;;;4.54;100.00;98770.63;87292;277;24884;-70
2024/01/02 01:10:03;;;;;;;8.60;6.90;;;;;;;4.58;100.00;98767.87;87170;272;22645;-68
2024/01/02 01:12:05;;;;;;;7.10;6.40;;;;;;;4.60;100.00;98770.82;87192;270;137028;-72
2024/01/02 01:14:07;;;;;;;7.20;6.50;;;;;;;4.63;100.00;98770.55;87470;270;23735;-72
2024/01/02 01:16:09;;;;;;;5.80;4.80;;;;;;;4.66;100.00;98761.98;87231;269;137109;-69
2024/01/02 01:18:11;;;;;;;6.20;4.70;;;;;;;4.71;100.00;98758.73;87278;266;25191;-70
2024/01/02 01:20:13;;;;;;;6.30;5.80;;;;;;;4.73;100.00;98765.09;87282;271;137125;-70
2024/01/02 01:22:16;;;;;;;8.70;5.90;;;;;;;4.75;100.00;98764.17;87234;275;24084;-72
2024/01/02 01:24:18;;;;;;;6.60;5.10;;;;;;;4.77;100.00;98762.73;87029;271;137480;-70
2024/01/02 01:26:20;;;;;;;5.60;5.10;;;;;;;4.77;100.00;98763.39;87213;271;25352;-70
2024/01/02 01:28:22;;;;;;;4.50;4.10;;;;;;;4.75;100.00;98762.96;87167;279;136623;-70
2024/01/02 01:30:23;;;;;;;5.10;4.40;;;;;;;4.75;100.00;98765.64;87141;272;22681;-69
2024/01/02 01:32:27;;;;;;;4.00;3.70;;;;;;;4.74;100.00;98764.12;87198;278;136713;-67
2024/01/02 01:34:29;;;;;;;4.30;3.00;;;;;;;4.73;100.00;98759.85;87335;270;25205;-72
2024/01/02 01:36:31;;;;;;;3.40;3.10;;;;;;;4.73;100.00;98767.15;87057;271;136901;-73
2024/01/02 01:38:33;;;;;;;2.60;2.50;;;;;;;4.74;100.00;98769.41;87310;270;25089;-70
2024/01/02 01:40:35;;;;;;;4.10;3.70;;;;;;;4.74;100.00;98763.76;87212;269;136800;-70
2024/01/02 01:42:37;;;;;;;3.40;3.10;;;;;;;4.74;100.00;98763.31;87264;274;25079;-70
2024/01/02 01:44:38;;;;;;;3.10;2.50;;;;;;;4.74;100.00;98764.29;87266;261;136824;-73
2024/01/02 01:46:43;;;;;;;4.00;3.50;;;;;;;4.73;100.00;98756.91;87323;269;22947;-71
2024/01/02 01:48:45;;;;;;;2.80;2.60;;;;;;;4.71;100.00;98756.75;87221;271;136718;-71
2024/01/02 01:50:48;;;;;;;17.60;10.30;;;;;;;4.71;100.00;98755.52;87337;279;22722;-70
2024/01/02 01:52:50;;;;;;;3.30;2.90;;;;;;;4.72;100.00;98752.65;87192;267;138479;-69
2024/01/02 01:54:52;;;;;;;3.10;2.30;;;;;;;4.73;100.00;98750.79;87070;276;25235;-69
2024/01/02 01:56:54;;;;;;;1.30;1.20;;;;;;;4.73;100.00;98752.84;87124;272;138958;-71
2024/01/02 01:58:56;;;;;;;1.60;1.50;;;;;;;4.72;100.00;98747.45;87286;275;22551;-72
2024/01/02 02:01:00;;;;;;;1.20;1.10;;;;;;;4.71;100.00;98750.75;87127;271;136933;-70
2024/01/02 02:03:04;;;;;;;1.00;1.00;;;;;;;4.71;100.00;98746.58;87265;279;23760;-71
2024/01/02 02:05:08;;;;;;;1.20;1.10;;;;;;;4.70;100.00;98745.13;87267;271;136803;-72
2024/01/02 02:07:11;;;;;;;0.90;0.80;;;;;;;4.71;100.00;98741.83;87443;267;24072;-71
2024/01/02 02:09:13;;;;;;;0.90;0.80;;;;;;;4.70;100.00;98743.48;87353;277;136727;-71
2024/01/02 02:13:55;;;;;;;1.10;0.50;;;;;;;4.57;100.00;98735.76;85056;307;604522;-73
2024/01/02 02:15:58;;;;;;;0.40;0.30;;;;;;;4.55;100.00;98735.85;86261;291;24151;-70
2024/01/02 02:18:00;;;;;;;0.60;0.50;;;;;;;4.51;100.00;98736.73;85969;293;137027;-72
2024/01/02 02:20:02;;;;;;;0.80;0.70;;;;;;;4.47;100.00;98735.05;86715;286;25209;-70
2024/01/02 02:22:06;;;;;;;0.90;0.40;;;;;;;4.48;100.00;98734.97;86746;282;23789;-69
2024/01/02 02:24:08;;;;;;;1.20;0.20;;;;;;;4.51;100.00;98732.33;86775;281;137443;-72
2024/01/02 02:26:10;;;;;;;0.40;0.30;;;;;;;4.53;100.00;98725.08;86572;283;22537;-71
2024/01/02 02:28:12;;;;;;;1.40;0.30;;;;;;;4.51;100.00;98721.93;86647;281;152610;-72
2024/01/02 02:30:14;;;;;;;0.90;0.20;;;;;;;4.51;100.00;98719.09;86950;280;26316;-71
2024/01/02 02:32:18;;;;;;;0.20;0.10;;;;;;;4.53;100.00;98713.30;86834;275;136617;-68
2024/01/02 02:34:20;;;;;;;0.50;0.20;;;;;;;4.53;100.00;98711.84;86892;284;25201;-70
2024/01/02 02:36:22;;;;;;;0.30;0.10;;;;;;;4.51;100.00;98715.67;86773;280;136900;-71
2024/01/02 02:38:24;;;;;;;0.30;0.20;;;;;;;4.47;100.00;98711.86;86901;272;22570;-70
2024/01/02 02:40:26;;;;;;;0.20;0.20;;;;;;;4.46;100.00;98711.98;86760;280;136438;-71
2024/01/02 02:42:28;;;;;;;0.10;0.10;;;;;;;4.46;100.00;98708.11;86945;275;23734;-64
2024/01/02 02:44:31;;;;;;;2.20;0.20;;;;;;;4.47;100.00;98711.17;86727;275;136414;-72
2024/01/02 02:46:35;;;;;;;0.30;0.20;;;;;;;4.48;100.00;98708.38;87003;282;22562;-71
2024/01/02 02:48:37;;;;;;;0.80;0.20;;;;;;;4.46;100.00;98708.13;86942;272;137062;-70
2024/01/02 02:50:40;;;;;;;0.20;0.20;;;;;;;4.47;100.00;98709.39;87180;272;22588;-72
2024/01/02 02:52:41;;;;;;;0.20;0.10;;;;;;;4.49;100.00;98713.91;86793;284;137163;-70
2024/01/02 02:54:46;;;;;;;0.10;0.10;;;;;;;4.48;100.00;98711.34;86833;276;22648;-71
2024/01/02 02:56:48;;;;;;;0.20;0.20;;;;;;;4.47;100.00;98705.74;86814;268;136564;-71
2024/01/02 02:58:50;;;;;;;0.30;0.30;;;;;;;4.45;100.00;98708.89;86839;284;24055;-71
2024/01/02 03:00:52;;;;;;;0.20;0.20;;;;;;;4.46;100.00;98701.89;86857;272;137141;-70
2024/01/02 03:02:56;;;;;;;0.40;0.30;;;;;;;4.47;100.00;98707.61;86857;280;24146;-69
2024/01/02 03:04:58;;;;;;;1.00;0.40;;;;;;;4.47;100.00;98706.06;86944;275;136487;-70
2024/01/02 03:07:00;;;;;;;0.80;0.20;;;;;;;4.47;100.00;98705.34;87011;275;25096;-70
2024/01/02 03:09:03;;;;;;;0.40;0.20;;;;;;;4.49;100.00;98704.95;86747;280;136259;-70
2024/01/02 03:11:05;;;;;;;0.50;0.20;;;;;;;4.48;100.00;98703.31;86884;276;24852;-69
2024/01/02 03:13:07;;;;;;;0.10;0.10;;;;;;;4.44;100.00;98702.38;86807;284;137063;-70
2024/01/02 03:15:09;;;;;;;0.20;0.20;;;;;;;4.40;100.00;98706.33;86878;282;24024;-70
2024/01/02 03:17:11;;;;;;;1.00;0.20;;;;;;;4.40;100.00;98706.08;86809;284;136634;-71
2024/01/02 03:19:13;;;;;;;0.40;0.10;;;;;;;4.41;100.00;98706.98;86966;275;22571;-71
2024/01/02 03:21:15;;;;;;;0.10;0.10;;;;;;;4.39;100.00;98705.09;86839;272;137817;-72
2024/01/02 03:23:17;;;;;;;0.60;0.20;;;;;;;4.39;100.00;98704.37;86931;275;26304;-70
2024/01/02 03:25:18;;;;;;;0.10;0.10;;;;;;;4.39;100.00;98699.42;86785;276;136375;-70
2024/01/02 03:27:20;;;;;;;0.20;0.20;;;;;;;4.41;100.00;98697.81;86830;276;22658;-71
2024/01/02 03:29:28;;;;;;;1.10;0.10;;;;;;;4.41;100.00;98698.99;86828;276;136617;-71
2024/01/02 03:31:30;;;;;;;0.10;0.10;;;;;;;4.41;100.00;98694.64;86926;283;22948;-71
2024/01/02 03:33:32;;;;;;;0.30;0.10;;;;;;;4.38;100.00;98690.92;86817;275;136408;-71
2024/01/02 03:35:34;;;;;;;0.30;0.10;;;;;;;4.32;100.00;98697.67;86902;275;22632;-70
2024/01/02 03:37:36;;;;;;;0.10;0.10;;;;;;;4.26;100.00;98694.00;86915;271;136560;-70
2024/01/02 03:39:37;;;;;;;0.70;0.10;;;;;;;4.22;100.00;98692.88;86922;272;22565;-68
2024/01/02 03:41:39;;;;;;;0.10;0.10;;;;;;;4.23;100.00;98694.46;86848;276;137990;-69
2024/01/02 03:43:41;;;;;;;0.60;0.20;;;;;;;4.23;100.00;98691.41;86981;275;25095;-70
2024/01/02 03:45:44;;;;;;;0.20;0.10;;;;;;;4.24;100.00;98695.36;87103;280;136549;-69
2024/01/02 03:47:46;;;;;;;0.40;0.10;;;;;;;4.25;100.00;98686.77;86859;272;22571;-72
2024/01/02 03:49:48;;;;;;;0.20;0.10;;;;;;;4.21;100.00;98686.70;86701;276;137840;-72
2024/01/02 03:51:49;;;;;;;0.30;0.10;;;;;;;4.19;100.00;98692.20;86880;283;24017;-72
2024/01/02 03:53:51;;;;;;;0.30;0.20;;;;;;;4.16;100.00;98691.63;86927;279;138649;-71
2024/01/02 03:55:53;;;;;;;0.70;0.10;;;;;;;4.14;100.00;98693.73;86900;272;22571;-72
2024/01/02 03:57:55;;;;;;;0.10;0.10;;;;;;;4.12;100.00;98689.41;86729;281;136432;-71
2024/01/02 03:59:56;;;;;;;0.10;0.00;;;;;;;4.13;100.00;98690.23;86968;276;23095;-70
2024/01/02 04:01:58;;;;;;;1.10;0.10;;;;;;;4.11;100.00;98692.11;86909;272;136091;-71
2024/01/02 04:04:02;;;;;;;0.10;0.10;;;;;;;4.08;100.00;98694.46;86881;283;136952;-67
2024/01/02 04:06:04;;;;;;;0.20;0.10;;;;;;;4.04;100.00;98693.87;86952;268;25210;-69
2024/01/02 04:08:06;;;;;;;5.20;0.30;;;;;;;4.01;100.00;98695.29;86676;273;137980;-71
2024/01/02 04:10:09;;;;;;;1.10;0.20;;;;;;;3.95;100.00;98692.38;86915;276;26110;-71
2024/01/02 04:12:12;;;;;;;0.40;0.10;;;;;;;3.93;100.00;98688.67;86790;283;137506;-67
2024/01/02 04:14:13;;;;;;;0.20;0.10;;;;;;;3.92;100.00;98690.27;86974;283;24156;-69
2024/01/02 04:16:16;;;;;;;0.20;0.10;;;;;;;3.91;100.00;98691.96;86884;283;137682;-70
2024/01/02 04:18:17;;;;;;;0.30;0.10;;;;;;;3.91;100.00;98692.79;87083;276;22665;-69
2024/01/02 04:20:20;;;;;;;0.30;0.10;;;;;;;3.94;100.00;98699.80;86777;276;138964;-70
2024/01/02 04:22:23;;;;;;;0.20;0.10;;;;;;;3.96;100.00;98695.52;86858;277;22581;-72
2024/01/02 04:24:25;;;;;;;1.90;0.30;;;;;;;3.96;100.00;98702.77;86935;274;136388;-71
2024/01/02 04:26:27;;;;;;;0.10;0.10;;;;;;;3.93;100.00;98704.90;87025;274;22574;-72
2024/01/02 04:28:29;;;;;;;0.30;0.30;;;;;;;3.92;100.00;98710.45;86890;271;136413;-71
2024/01/02 04:30:31;;;;;;;0.10;0.10;;;;;;;3.88;100.00;98710.84;86987;274;21556;-73
2024/01/02 04:32:33;;;;;;;0.80;0.10;;;;;;;3.85;100.00;98716.24;86872;274;136260;-72
2024/01/02 04:34:35;;;;;;;1.80;0.10;;;;;;;3.78;100.00;98719.32;86977;279;22575;-72
2024/01/02 04:36:41;;;;;;;0.30;0.10;;;;;;;3.70;100.00;98726.06;86991;273;136216;-70
2024/01/02 04:38:42;;;;;;;0.10;0.10;;;;;;;3.64;100.00;98728.55;87086;274;24055;-72
2024/01/02 04:40:44;;;;;;;0.10;0.10;;;;;;;3.62;100.00;98720.70;87093;269;136270;-68
2024/01/02 04:42:46;;;;;;;0.40;0.20;;;;;;;3.61;100.00;98720.05;87209;273;24014;-70
2024/01/02 04:44:48;;;;;;;0.20;0.10;;;;;;;3.63;100.00;98723.15;87018;277;136080;-70
2024/01/02 04:46:50;;;;;;;5.60;0.10;;;;;;;3.67;100.00;98729.45;87086;273;22596;-73
2024/01/02 04:48:52;;;;;;;0.30;0.20;;;;;;;3.66;100.00;98731.09;87102;269;137330;-71
2024/01/02 04:50:53;;;;;;;0.70;0.10;;;;;;;3.67;100.00;98733.48;88935;265;22633;-69
2024/01/02 04:52:55;;;;;;;0.20;0.10;;;;;;;3.67;100.00;98736.21;89722;269;136310;-69
2024/01/02 04:54:59;;;;;;;0.30;0.30;;;;;;;3.70;100.00;98742.73;89766;269;22828;-68
2024/01/02 04:57:01;;;;;;;0.60;0.10;;;;;;;3.72;100.00;98739.72;89646;269;136264;-70
2024/01/02 04:59:03;;;;;;;0.20;0.20;;;;;;;3.72;100.00;98744.66;89719;277;23068;-69
2024/01/02 05:01:05;;;;;;;1.50;1.10;;;;;;;3.70;100.00;98749.10;89687;278;136183;-69
2024/01/02 05:03:07;;;;;;;4.10;1.60;;;;;;;3.67;100.00;98750.18;89703;276;22589;-69
2024/01/02 05:05:08;;;;;;;1.60;0.90;;;;;;;3.61;100.00;98752.30;89733;276;137273;-70
2024/01/02 05:07:10;;;;;;;0.90;0.40;;;;;;;3.57;100.00;98753.33;89703;276;22416;-69
2024/01/02 05:09:12;;;;;;;0.30;0.20;;;;;;;3.57;100.00;98764.36;89720;277;137370;-70
2024/01/02 05:11:14;;;;;;;0.30;0.10;;;;;;;3.57;100.00;98746.61;89706;270;22454;-69
2024/01/02 05:13:16;;;;;;;0.10;0.10;;;;;;;3.58;100.00;98746.80;89706;269;138515;-72
2024/01/02 05:15:18;;;;;;;1.10;0.70;;;;;;;3.59;100.00;98750.16;89797;276;22381;-70
2024/01/02 05:17:20;;;;;;;1.40;1.20;;;;;;;3.60;100.00;98756.92;89520;271;136349;-69
2024/01/02 05:19:22;;;;;;;5.90;4.20;;;;;;;3.62;100.00;98756.13;89758;278;22337;-68
2024/01/02 05:21:24;;;;;;;2.40;1.70;;;;;;;3.66;100.00;98760.07;89655;276;137087;-69
2024/01/02 05:23:26;;;;;;;3.30;1.30;;;;;;;3.67;100.00;98759.77;89607;269;22470;-71
2024/01/02 05:25:28;;;;;;;1.50;0.80;;;;;;;3.69;100.00;98763.56;86999;273;137864;-72
2024/01/02 05:27:31;;;;;;;3.10;0.30;;;;;;;3.73;100.00;98760.89;87020;282;25138;-74
2024/01/02 05:29:36;;;;;;;0.20;0.10;;;;;;;3.78;100.00;98764.70;87112;273;136844;-72
2024/01/02 05:31:37;;;;;;;5.10;4.20;;;;;;;3.77;100.00;98769.58;87091;282;25079;-68
2024/01/02 05:33:39;;;;;;;5.10;3.90;;;;;;;3.68;100.00;98771.42;87100;280;136039;-74
2024/01/02 05:35:44;;;;;;;5.40;3.50;;;;;;;3.60;100.00;98768.59;87260;273;25105;-72
2024/01/02 05:37:47;;;;;;;3.90;2.20;;;;;;;3.56;100.00;98767.64;87118;281;136274;-72
2024/01/02 05:39:48;;;;;;;1.00;0.40;;;;;;;3.55;100.00;98769.13;87074;267;22703;-74
2024/01/02 05:41:50;;;;;;;0.80;0.20;;;;;;;3.55;100.00;98779.14;87066;277;137878;-70
2024/01/02 05:43:52;;;;;;;1.00;0.80;;;;;;;3.54;100.00;98780.13;87025;269;22566;-68
2024/01/02 05:45:53;;;;;;;1.40;1.00;;;;;;;3.54;100.00;98784.27;87006;280;136206;-68
2024/01/02 05:47:55;;;;;;;2.90;1.70;;;;;;;3.51;100.00;98785.92;87114;273;22570;-72
2024/01/02 05:49:59;;;;;;;1.50;0.30;;;;;;;3.42;100.00;98785.63;87051;281;137743;-71
2024/01/02 05:52:02;;;;;;;0.20;0.10;;;;;;;3.34;100.00;98795.19;87071;271;25278;-72
2024/01/02 05:54:04;;;;;;;0.70;0.30;;;;;;;3.23;100.00;98795.16;87077;273;22565;-69
2024/01/02 05:56:10;;;;;;;0.60;0.30;;;;;;;3.18;100.00;98799.77;87128;273;136619;-72
2024/01/02 05:58:12;;;;;;;1.40;0.90;;;;;;;3.15;100.00;98806.46;87026;281;25195;-68
2024/01/02 06:00:15;;;;;;;1.40;0.50;;;;;;;3.16;100.00;98801.77;87000;274;136545;-69
2024/01/02 06:02:17;;;;;;;2.00;1.70;;;;;;;3.16;100.00;98801.36;87025;283;22577;-71
2024/01/02 06:04:19;;;;;;;1.40;0.90;;;;;;;3.17;100.00;98809.06;87015;273;136889;-71
2024/01/02 06:06:21;;;;;;;2.60;1.40;;;;;;;3.17;100.00;98812.20;87128;273;25255;-72
2024/01/02 06:08:23;;;;;;;2.60;0.50;;;;;;;3.20;100.00;98814.64;87014;281;136522;-70
2024/01/02 06:10:26;;;;;;;0.80;0.30;;;;;;;3.21;100.00;98813.27;87221;273;25531;-69
2024/01/02 06:12:27;;;;;;;0.40;0.10;;;;;;;3.21;100.00;98817.69;87027;273;137313;-72
2024/01/02 06:14:32;;;;;;;0.60;0.40;;;;;;;3.19;100.00;98819.71;87171;273;26275;-73
2024/01/02 06:16:34;;;;;;;0.60;0.60;;;;;;;3.12;100.00;98826.25;86958;273;136787;-67
2024/01/02 06:18:39;;;;;;;5.20;2.50;;;;;;;3.11;100.00;98828.84;87108;273;25185;-74
2024/01/02 06:20:41;;;;;;;4.40;3.90;;;;;;;3.08;100.00;98832.15;87009;273;136938;-71
2024/01/02 06:22:43;;;;;;;5.70;4.60;;;;;;;3.04;100.00;98835.11;87065;280;25243;-70
2024/01/02 06:24:45;;;;;;;15.20;13.50;;;;;;;3.01;100.00;98836.38;86922;273;136742;-69
2024/01/02 06:26:47;;;;;;;36.40;32.50;;;;;;;3.00;100.00;98842.58;86884;269;25139;-70
2024/01/02 06:28:50;;;;;;;28.90;25.60;;;;;;;3.02;100.00;98847.14;86879;270;137473;-73
2024/01/02 06:30:52;;;;;;;43.70;35.30;;;;;;;3.03;100.00;98843.63;87137;273;22645;-72
2024/01/02 06:32:56;;;;;;;32.60;26.90;;;;;;;3.01;100.00;98850.77;86945;265;136483;-71
2024/01/02 06:34:59;;;;;;;27.80;24.30;;;;;;;3.01;100.00;98850.60;87060;278;23743;-71
2024/01/02 06:37:01;;;;;;;18.70;16.70;;;;;;;2.98;100.00;98858.42;86922;273;136526;-72
2024/01/02 06:39:03;;;;;;;22.60;19.40;;;;;;;2.99;100.00;98860.59;87020;269;25198;-71
2024/01/02 06:41:05;;;;;;;28.80;25.40;;;;;;;2.99;100.00;98863.25;86982;270;136867;-69
2024/01/02 06:43:07;;;;;;;26.60;22.30;;;;;;;2.99;100.00;98869.20;87198;268;25079;-72
2024/01/02 06:45:09;;;;;;;40.60;34.90;;;;;;;2.99;100.00;98870.46;86934;278;138840;-70
2024/01/02 06:47:11;;;;;;;38.90;31.70;;;;;;;3.00;100.00;98874.73;87246;269;22568;-70
2024/01/02 06:49:14;;;;;;;48.50;36.80;;;;;;;3.00;100.00;98869.06;87158;273;137095;-73
2024/01/02 06:51:16;;;;;;;43.20;33.60;;;;;;;3.00;100.00;98875.58;87244;273;22649;-72
2024/01/02 06:53:18;;;;;;;34.10;26.90;;;;;;;3.04;100.00;98883.55;86996;281;136976;-71
2024/01/02 06:55:20;;;;;;;42.80;32.70;;;;;;;3.10;100.00;98887.19;87038;269;25246;-70
2024/01/02 06:57:22;;;;;;;43.60;36.10;;;;;;;3.15;100.00;98883.61;86933;274;137450;-72
2024/01/02 06:59:24;;;;;;;61.60;49.60;;;;;;;3.12;100.00;98899.56;87059;280;22570;-72
2024/01/02 07:01:26;;;;;;;59.60;49.60;;;;;;;3.05;100.00;98905.21;87034;280;136953;-70
2024/01/02 07:03:27;;;;;;;48.70;36.20;;;;;;;3.00;100.00;98914.61;87081;273;22549;-74
2024/01/02 07:05:30;;;;;;;33.00;27.30;;;;;;;3.00;100.00;98917.01;87096;266;137962;-73
2024/01/02 07:07:34;;;;;;;43.30;35.80;;;;;;;2.95;100.00;98921.98;87336;263;22846;-73
2024/01/02 07:09:36;;;;;;;53.70;45.50;;;;;;;2.86;100.00;98921.86;87122;266;136493;-72
2024/01/02 07:11:38;;;;;;;60.70;50.40;;;;;;;2.82;100.00;98929.84;87358;270;24068;-73
2024/01/02 07:13:40;;;;;;;77.30;65.60;;;;;;;2.81;100.00;98933.50;87203;270;138441;-71
2024/01/02 07:15:42;;;;;;;78.40;62.20;;;;;;;2.80;100.00;98931.53;87367;263;24010;-72
2024/01/02 07:17:46;;;;;;;76.40;59.70;;;;;;;2.81;100.00;98942.29;87244;271;137012;-73
2024/01/02 07:19:49;;;;;;;73.60;61.10;;;;;;;2.83;100.00;98945.95;87201;267;22559;-72
2024/01/02 07:21:51;;;;;;;59.60;45.90;;;;;;;2.85;100.00;98928.90;87237;270;136925;-69
2024/01/02 07:23:53;;;;;;;41.50;31.70;;;;;;;2.83;100.00;98939.41;87148;271;22815;-72
2024/01/02 07:25:55;;;;;;;40.80;28.90;;;;;;;2.80;100.00;98938.50;87290;270;136210;-74
2024/01/02 07:27:57;;;;;;;33.30;26.40;;;;;;;2.73;100.00;98941.63;87356;266;22552;-72
2024/01/02 07:30:00;;;;;;;35.50;27.50;;;;;;;2.65;100.00;98943.77;87260;270;136197;-73
2024/01/02 07:32:02;;;;;;;34.60;24.10;;;;;;;2.62;100.00;98955.48;87204;268;25775;-74
2024/01/02 07:34:05;;;;;;;24.60;19.60;;;;;;;2.64;100.00;98959.23;87196;276;24001;-73
2024/01/02 07:36:07;;;;;;;14.00;8.00;;;;;;;2.66;100.00;98954.67;87270;267;137031;-73
2024/01/02 07:38:09;;;;;;;8.20;7.40;;;;;;;2.65;100.00;98967.38;87164;271;24004;-70
2024/01/02 07:40:12;;;;;;;7.10;5.40;;;;;;;2.62;100.00;98962.49;87122;270;136604;-71
2024/01/02 07:42:13;;;;;;;5.80;4.90;;;;;;;2.58;100.00;98972.90;87308;270;22904;-71
2024/01/02 07:44:15;;;;;;;5.30;4.80;;;;;;;2.51;100.00;98983.11;87216;274;136238;-71
2024/01/02 07:46:19;;;;;;;8.90;5.90;;;;;;;2.54;100.00;98984.91;87334;278;25165;-72
2024/01/02 07:48:21;;;;;;;11.50;9.00;;;;;;;2.56;100.00;98994.70;87254;278;136555;-71
2024/01/02 07:50:23;;;;;;;15.50;10.90;;;;;;;2.59;100.00;98993.65;87300;270;25206;-70
2024/01/02 07:52:26;;;;;;;17.80;11.80;;;;;;;2.63;100.00;98995.66;87271;274;137089;-73
2024/01/02 07:54:28;;;;;;;22.60;15.50;;;;;;;2.67;100.00;98988.98;87329;271;22576;-71
2024/01/02 07:56:32;;;;;;;17.60;11.70;;;;;;;2.64;100.00;98998.73;87215;271;137226;-75
2024/01/02 07:58:35;;;;;;;17.00;12.80;;;;;;;2.59;100.00;99008.96;87180;280;26268;-72
2024/01/02 08:00:36;;;;;;;25.90;14.90;;;;;;;2.53;100.00;99017.50;87145;271;136013;-72
2024/01/02 08:02:38;;;;;;;19.80;14.40;;;;;;;2.46;100.00;99028.73;87348;277;24196;-72
2024/01/02 08:04:41;;;;;;;22.90;16.50;;;;;;;2.41;100.00;99029.51;87125;271;136372;-69
2024/01/02 08:06:42;;;;;;;19.20;13.50;;;;;;;2.39;100.00;99035.67;87231;275;24071;-71
2024/01/02 08:08:44;;;;;;;20.10;15.40;;;;;;;2.40;100.00;99047.71;87310;275;137075;-73
2024/01/02 08:10:46;;;;;;;20.40;14.20;;;;;;;2.34;100.00;99043.58;87023;269;25097;-67
2024/01/02 08:12:49;;;;;;;14.40;8.50;;;;;;;2.29;100.00;99055.55;87247;274;136732;-72
2024/01/02 08:14:53;;;;;;;11.50;7.70;;;;;;;2.21;100.00;99061.05;87088;268;22638;-71
2024/01/02 08:16:55;;;;;;;10.70;7.90;;;;;;;2.13;100.00;99069.86;87187;266;136698;-71
2024/01/02 08:18:57;;;;;;;12.90;9.60;;;;;;;2.03;100.00;99067.45;87285;278;26275;-72
2024/01/02 08:20:59;;;;;;;13.90;10.10;;;;;;;1.95;100.00;99076.47;86914;273;136099;-74
2024/01/02 08:23:01;;;;;;;13.50;10.20;;;;;;;1.93;100.00;99085.07;87386;275;22557;-72
2024/01/02 08:25:03;;;;;;;8.80;7.20;;;;;;;1.95;100.00;99079.95;87014;280;137034;-74
2024/01/02 08:27:05;;;;;;;9.00;5.40;;;;;;;1.97;100.00;99081.92;87363;267;22552;-73
2024/01/02 08:29:08;;;;;;;3.20;2.90;;;;;;;1.98;100.00;99081.81;87178;278;137720;-73
2024/01/02 08:31:10;;;;;;;3.70;3.10;;;;;;;1.97;100.00;99083.66;87298;278;25203;-70
2024/01/02 08:33:12;;;;;;;3.80;3.30;;;;;;;1.91;100.00;99097.23;87182;278;136229;-73
2024/01/02 08:35:14;;;;;;;5.30;3.40;;;;;;;1.84;100.00;99099.75;87349;271;22529;-73
2024/01/02 08:37:16;;;;;;;5.40;4.20;;;;;;;1.77;100.00;99100.45;87221;271;137126;-70
2024/01/02 08:39:18;;;;;;;5.50;4.80;;;;;;;1.71;100.00;99111.62;87218;268;25130;-74
2024/01/02 08:41:20;;;;;;;5.80;4.60;;;;;;;1.66;100.00;99111.48;87052;278;136080;-73
2024/01/02 08:43:22;;;;;;;8.10;6.40;;;;;;;1.62;100.00;99117.31;87320;271;25098;-73
2024/01/02 08:45:25;;;;;;;4.90;4.50;;;;;;;1.59;100.00;99115.48;87309;271;137018;-71
2024/01/02 08:47:27;;;;;;;4.20;3.60;;;;;;;1.56;100.00;99121.92;87125;268;25101;-73
2024/01/02 08:49:30;;;;;;;6.90;5.30;;;;;;;1.49;100.00;99129.84;87014;268;136363;-69
2024/01/02 08:51:34;;;;;;;4.60;3.40;;;;;;;1.38;100.00;99125.41;87335;263;26284;-74
2024/01/02 08:53:36;;;;;;;5.30;4.40;;;;;;;1.26;100.00;99130.30;87215;270;135964;-73
2024/01/02 08:56:01;;;;;;;11.80;8.10;;;;;;;1.16;100.00;99134.31;87412;270;25385;-72
2024/01/02 08:58:03;;;;;;;16.00;10.80;;;;;;;1.03;100.00;99140.31;87144;269;22697;-72
2024/01/02 09:00:08;;;;;;;10.90;9.30;;;;;;;0.93;100.00;99139.52;87037;281;136385;-71
2024/01/02 09:02:10;;;;;;;13.80;9.60;;;;;;;0.86;100.00;99145.31;87110;274;22489;-72
2024/01/02 09:04:12;;;;;;;8.90;7.10;;;;;;;0.83;100.00;99144.08;86961;282;138125;-71
2024/01/02 09:06:20;;;;;;;8.30;5.60;;;;;;;0.79;100.00;99143.83;87085;274;22552;-72
2024/01/02 09:08:22;;;;;;;5.10;4.20;;;;;;;0.77;100.00;99148.89;87013;278;138452;-72
2024/01/02 09:10:24;;;;;;;7.00;5.70;;;;;;;0.75;100.00;99155.19;87066;274;24551;-71
2024/01/02 09:12:28;;;;;;;7.40;5.60;;;;;;;0.69;100.00;99158.92;86844;274;136947;-70
2024/01/02 09:14:30;;;;;;;7.70;6.40;;;;;;;0.64;100.00;99169.64;87107;276;24769;-71
2024/01/02 09:16:33;;;;;;;6.80;5.00;;;;;;;0.62;100.00;99181.30;87080;280;135365;-66
2024/01/02 09:18:35;;;;;;;6.50;5.50;;;;;;;0.64;100.00;99190.77;87091;274;22556;-72
2024/01/02 09:20:37;;;;;;;7.60;4.80;;;;;;;0.63;100.00;99191.36;86989;269;135500;-71
2024/01/02 09:22:39;;;;;;;6.40;5.00;;;;;;;0.66;100.00;99188.85;87123;281;22850;-72
2024/01/02 09:24:43;;;;;;;5.20;4.30;;;;;;;0.72;100.00;99197.48;87029;281;137307;-72
2024/01/02 09:26:50;;;;;;;4.70;3.20;;;;;;;0.79;100.00;99204.82;87123;269;22605;-70
2024/01/02 09:28:51;;;;;;;5.90;5.00;;;;;;;0.83;100.00;99198.66;87051;273;137283;-73
2024/01/02 09:30:53;;;;;;;11.30;5.80;;;;;;;0.82;100.00;99193.52;87353;270;22698;-73
2024/01/02 09:32:56;;;;;;;6.00;4.20;;;;;;;0.77;100.00;99203.23;87063;271;136887;-71
2024/01/02 09:34:58;;;;;;;12.40;7.20;;;;;;;0.73;100.00;99206.84;87443;270;25303;-72
2024/01/02 09:37:00;;;;;;;9.50;7.50;;;;;;;0.64;100.00;99214.70;87308;271;136256;-73